sensor_id;sensor_type;location;lat;lon;timestamp;P1;durP1;ratioP1;P2;durP2;ratioP2
9222;SDS011;7557;51.698;3.942;2023-03-15T00:00:34;9.77;;;2.40;;
9222;SDS011;7557;51.698;3.942;2023-03-15T00:03:01;5.17;;;2.30;;
9222;SDS011;7557;51.698;3.942;2023-03-15T00:05:30;4.73;;;2.40;;
9222;SDS011;7557;51.698;3.942;2023-03-15T00:07:57;7.37;;;2.50;;
9222;SDS011;7557;51.698;3.942;2023-03-15T00:10:24;6.93;;;2.00;;
9222;SDS011;7557;51.698;3.942;2023-03-15T00:12:51;3.27;;;2.00;;
9222;SDS011;7557;51.698;3.942;2023-03-15T00:15:20;4.23;;;1.90;;
9222;SDS011;7557;51.698;3.942;2023-03-15T00:17:47;4.33;;;1.60;;
9222;SDS011;7557;51.698;3.942;2023-03-15T00:20:14;2.33;;;1.37;;
9222;SDS011;7557;51.698;3.942;2023-03-15T00:22:43;3.80;;;1.70;;
9222;SDS011;7557;51.698;3.942;2023-03-15T00:25:10;3.93;;;1.57;;
9222;SDS011;7557;51.698;3.942;2023-03-15T00:27:37;6.50;;;1.63;;
9222;SDS011;7557;51.698;3.942;2023-03-15T00:30:04;2.67;;;1.53;;
9222;SDS011;7557;51.698;3.942;2023-03-15T00:32:34;4.27;;;1.43;;
9222;SDS011;7557;51.698;3.942;2023-03-15T00:35:01;3.37;;;1.80;;
9222;SDS011;7557;51.698;3.942;2023-03-15T00:37:28;8.47;;;1.73;;
9222;SDS011;7557;51.698;3.942;2023-03-15T00:39:56;1.77;;;1.53;;
9222;SDS011;7557;51.698;3.942;2023-03-15T00:42:24;3.10;;;1.43;;
9222;SDS011;7557;51.698;3.942;2023-03-15T00:44:51;2.80;;;1.50;;
9222;SDS011;7557;51.698;3.942;2023-03-15T00:47:19;3.97;;;1.70;;
9222;SDS011;7557;51.698;3.942;2023-03-15T00:52:49;3.50;;;1.97;;
9222;SDS011;7557;51.698;3.942;2023-03-15T00:55:17;3.10;;;1.93;;
9222;SDS011;7557;51.698;3.942;2023-03-15T00:57:45;5.03;;;2.37;;
9222;SDS011;7557;51.698;3.942;2023-03-15T01:00:13;2.40;;;1.50;;
9222;SDS011;7557;51.698;3.942;2023-03-15T01:02:44;5.37;;;2.67;;
9222;SDS011;7557;51.698;3.942;2023-03-15T01:05:11;5.13;;;1.70;;
9222;SDS011;7557;51.698;3.942;2023-03-15T01:07:40;5.17;;;1.80;;
9222;SDS011;7557;51.698;3.942;2023-03-15T01:10:10;5.43;;;1.70;;
9222;SDS011;7557;51.698;3.942;2023-03-15T01:12:38;2.83;;;1.30;;
9222;SDS011;7557;51.698;3.942;2023-03-15T01:15:06;4.07;;;1.70;;
9222;SDS011;7557;51.698;3.942;2023-03-15T01:17:36;3.00;;;1.43;;
9222;SDS011;7557;51.698;3.942;2023-03-15T01:20:03;3.37;;;1.30;;
9222;SDS011;7557;51.698;3.942;2023-03-15T01:22:31;1.90;;;1.03;;
9222;SDS011;7557;51.698;3.942;2023-03-15T01:24:59;1.53;;;1.00;;
9222;SDS011;7557;51.698;3.942;2023-03-15T01:27:27;4.57;;;1.00;;
9222;SDS011;7557;51.698;3.942;2023-03-15T01:29:54;1.50;;;1.17;;
9222;SDS011;7557;51.698;3.942;2023-03-15T01:32:21;3.13;;;1.60;;
9222;SDS011;7557;51.698;3.942;2023-03-15T01:34:48;5.03;;;2.07;;
9222;SDS011;7557;51.698;3.942;2023-03-15T01:37:15;2.37;;;1.33;;
9222;SDS011;7557;51.698;3.942;2023-03-15T01:39:42;4.97;;;1.70;;
9222;SDS011;7557;51.698;3.942;2023-03-15T01:42:11;2.40;;;1.50;;
9222;SDS011;7557;51.698;3.942;2023-03-15T01:44:48;3.53;;;1.70;;
9222;SDS011;7557;51.698;3.942;2023-03-15T01:47:20;1.90;;;0.97;;
9222;SDS011;7557;51.698;3.942;2023-03-15T01:49:51;3.23;;;1.10;;
9222;SDS011;7557;51.698;3.942;2023-03-15T01:52:22;2.67;;;1.43;;
9222;SDS011;7557;51.698;3.942;2023-03-15T01:54:55;1.00;;;0.80;;
9222;SDS011;7557;51.698;3.942;2023-03-15T01:57:28;1.93;;;0.90;;
9222;SDS011;7557;51.698;3.942;2023-03-15T02:00:03;2.00;;;1.10;;
9222;SDS011;7557;51.698;3.942;2023-03-15T02:02:35;1.93;;;1.17;;
9222;SDS011;7557;51.698;3.942;2023-03-15T02:05:06;8.63;;;1.73;;
9222;SDS011;7557;51.698;3.942;2023-03-15T02:07:37;1.43;;;1.33;;
9222;SDS011;7557;51.698;3.942;2023-03-15T02:10:07;4.63;;;1.33;;
9222;SDS011;7557;51.698;3.942;2023-03-15T02:12:39;3.87;;;1.57;;
9222;SDS011;7557;51.698;3.942;2023-03-15T02:15:11;1.87;;;1.30;;
9222;SDS011;7557;51.698;3.942;2023-03-15T02:17:42;1.67;;;1.50;;
9222;SDS011;7557;51.698;3.942;2023-03-15T02:20:15;1.50;;;1.40;;
9222;SDS011;7557;51.698;3.942;2023-03-15T02:22:52;5.13;;;2.50;;
9222;SDS011;7557;51.698;3.942;2023-03-15T02:25:24;3.23;;;1.87;;
9222;SDS011;7557;51.698;3.942;2023-03-15T02:28:00;3.93;;;1.63;;
9222;SDS011;7557;51.698;3.942;2023-03-15T02:30:28;2.57;;;1.33;;
9222;SDS011;7557;51.698;3.942;2023-03-15T02:32:56;1.93;;;1.83;;
9222;SDS011;7557;51.698;3.942;2023-03-15T02:35:24;2.33;;;2.10;;
9222;SDS011;7557;51.698;3.942;2023-03-15T02:37:54;6.80;;;2.20;;
9222;SDS011;7557;51.698;3.942;2023-03-15T02:40:21;2.20;;;2.00;;
9222;SDS011;7557;51.698;3.942;2023-03-15T02:42:52;6.30;;;2.53;;
9222;SDS011;7557;51.698;3.942;2023-03-15T02:45:24;4.67;;;2.07;;
9222;SDS011;7557;51.698;3.942;2023-03-15T02:47:52;3.97;;;2.13;;
9222;SDS011;7557;51.698;3.942;2023-03-15T02:50:20;3.20;;;2.03;;
9222;SDS011;7557;51.698;3.942;2023-03-15T02:52:47;3.03;;;2.10;;
9222;SDS011;7557;51.698;3.942;2023-03-15T02:55:16;4.53;;;1.90;;
9222;SDS011;7557;51.698;3.942;2023-03-15T02:57:46;8.13;;;2.60;;
9222;SDS011;7557;51.698;3.942;2023-03-15T03:00:13;1.80;;;1.50;;
9222;SDS011;7557;51.698;3.942;2023-03-15T03:02:43;2.23;;;1.97;;
9222;SDS011;7557;51.698;3.942;2023-03-15T03:05:12;4.93;;;2.07;;
9222;SDS011;7557;51.698;3.942;2023-03-15T03:07:41;1.63;;;1.50;;
9222;SDS011;7557;51.698;3.942;2023-03-15T03:10:09;2.87;;;2.10;;
9222;SDS011;7557;51.698;3.942;2023-03-15T03:12:38;2.83;;;1.70;;
9222;SDS011;7557;51.698;3.942;2023-03-15T03:15:05;3.53;;;1.63;;
9222;SDS011;7557;51.698;3.942;2023-03-15T03:17:33;2.57;;;1.73;;
9222;SDS011;7557;51.698;3.942;2023-03-15T03:20:03;4.17;;;1.90;;
9222;SDS011;7557;51.698;3.942;2023-03-15T03:22:32;2.10;;;1.47;;
9222;SDS011;7557;51.698;3.942;2023-03-15T03:24:59;3.80;;;1.53;;
9222;SDS011;7557;51.698;3.942;2023-03-15T03:27:27;3.00;;;1.67;;
9222;SDS011;7557;51.698;3.942;2023-03-15T03:29:54;1.43;;;1.33;;
9222;SDS011;7557;51.698;3.942;2023-03-15T03:32:21;2.00;;;1.40;;
9222;SDS011;7557;51.698;3.942;2023-03-15T03:34:48;2.73;;;1.50;;
9222;SDS011;7557;51.698;3.942;2023-03-15T03:37:17;2.70;;;1.33;;
9222;SDS011;7557;51.698;3.942;2023-03-15T03:39:45;4.13;;;1.40;;
9222;SDS011;7557;51.698;3.942;2023-03-15T03:42:12;2.50;;;1.90;;
9222;SDS011;7557;51.698;3.942;2023-03-15T03:44:39;2.13;;;1.93;;
9222;SDS011;7557;51.698;3.942;2023-03-15T03:47:07;1.83;;;1.73;;
9222;SDS011;7557;51.698;3.942;2023-03-15T03:49:34;2.37;;;1.67;;
9222;SDS011;7557;51.698;3.942;2023-03-15T03:52:01;2.83;;;1.90;;
9222;SDS011;7557;51.698;3.942;2023-03-15T03:54:29;1.70;;;1.60;;
9222;SDS011;7557;51.698;3.942;2023-03-15T03:56:57;2.87;;;2.23;;
9222;SDS011;7557;51.698;3.942;2023-03-15T03:59:24;2.47;;;1.70;;
9222;SDS011;7557;51.698;3.942;2023-03-15T04:01:51;4.37;;;2.20;;
9222;SDS011;7557;51.698;3.942;2023-03-15T04:04:18;2.10;;;1.97;;
9222;SDS011;7557;51.698;3.942;2023-03-15T04:06:45;2.97;;;2.40;;
9222;SDS011;7557;51.698;3.942;2023-03-15T04:09:15;2.93;;;2.23;;
9222;SDS011;7557;51.698;3.942;2023-03-15T04:11:43;3.03;;;2.60;;
9222;SDS011;7557;51.698;3.942;2023-03-15T04:14:11;4.63;;;2.50;;
9222;SDS011;7557;51.698;3.942;2023-03-15T04:16:39;2.63;;;2.43;;
9222;SDS011;7557;51.698;3.942;2023-03-15T04:19:06;3.60;;;2.20;;
9222;SDS011;7557;51.698;3.942;2023-03-15T04:21:34;2.83;;;2.37;;
9222;SDS011;7557;51.698;3.942;2023-03-15T04:24:01;4.77;;;2.60;;
9222;SDS011;7557;51.698;3.942;2023-03-15T04:26:28;3.43;;;3.20;;
9222;SDS011;7557;51.698;3.942;2023-03-15T04:28:57;2.87;;;2.50;;
9222;SDS011;7557;51.698;3.942;2023-03-15T04:31:24;3.20;;;2.87;;
9222;SDS011;7557;51.698;3.942;2023-03-15T04:33:52;3.90;;;3.53;;
9222;SDS011;7557;51.698;3.942;2023-03-15T04:36:19;2.90;;;2.70;;
9222;SDS011;7557;51.698;3.942;2023-03-15T04:38:47;10.43;;;3.20;;
9222;SDS011;7557;51.698;3.942;2023-03-15T04:41:15;3.20;;;2.97;;
9222;SDS011;7557;51.698;3.942;2023-03-15T04:43:43;5.57;;;3.10;;
9222;SDS011;7557;51.698;3.942;2023-03-15T04:46:12;5.90;;;3.60;;
9222;SDS011;7557;51.698;3.942;2023-03-15T04:48:39;4.57;;;3.70;;
9222;SDS011;7557;51.698;3.942;2023-03-15T04:51:06;4.00;;;3.20;;
9222;SDS011;7557;51.698;3.942;2023-03-15T04:53:33;3.83;;;3.20;;
9222;SDS011;7557;51.698;3.942;2023-03-15T04:56:00;4.07;;;3.17;;
9222;SDS011;7557;51.698;3.942;2023-03-15T04:58:28;3.13;;;2.90;;
9222;SDS011;7557;51.698;3.942;2023-03-15T05:00:55;4.80;;;2.90;;
9222;SDS011;7557;51.698;3.942;2023-03-15T05:03:23;2.63;;;2.43;;
9222;SDS011;7557;51.698;3.942;2023-03-15T05:05:53;4.77;;;2.83;;
9222;SDS011;7557;51.698;3.942;2023-03-15T05:08:20;6.57;;;3.30;;
9222;SDS011;7557;51.698;3.942;2023-03-15T05:10:47;3.93;;;3.47;;
9222;SDS011;7557;51.698;3.942;2023-03-15T05:13:15;3.17;;;3.07;;
9222;SDS011;7557;51.698;3.942;2023-03-15T05:15:44;3.17;;;2.97;;
9222;SDS011;7557;51.698;3.942;2023-03-15T05:18:11;3.73;;;3.43;;
9222;SDS011;7557;51.698;3.942;2023-03-15T05:20:40;3.03;;;2.70;;
9222;SDS011;7557;51.698;3.942;2023-03-15T05:23:07;5.77;;;3.40;;
9222;SDS011;7557;51.698;3.942;2023-03-15T05:25:34;4.03;;;2.80;;
9222;SDS011;7557;51.698;3.942;2023-03-15T05:28:01;3.23;;;2.93;;
9222;SDS011;7557;51.698;3.942;2023-03-15T05:30:29;3.57;;;2.43;;
9222;SDS011;7557;51.698;3.942;2023-03-15T05:32:56;3.10;;;2.83;;
9222;SDS011;7557;51.698;3.942;2023-03-15T05:35:23;3.33;;;3.03;;
9222;SDS011;7557;51.698;3.942;2023-03-15T05:37:53;4.10;;;3.10;;
9222;SDS011;7557;51.698;3.942;2023-03-15T05:40:21;3.07;;;2.77;;
9222;SDS011;7557;51.698;3.942;2023-03-15T05:42:48;6.50;;;3.17;;
9222;SDS011;7557;51.698;3.942;2023-03-15T05:45:15;3.13;;;2.83;;
9222;SDS011;7557;51.698;3.942;2023-03-15T05:47:42;3.20;;;2.77;;
9222;SDS011;7557;51.698;3.942;2023-03-15T05:50:09;9.43;;;3.10;;
9222;SDS011;7557;51.698;3.942;2023-03-15T05:52:36;3.37;;;3.07;;
9222;SDS011;7557;51.698;3.942;2023-03-15T05:55:05;2.87;;;2.60;;
9222;SDS011;7557;51.698;3.942;2023-03-15T05:57:33;2.70;;;2.50;;
9222;SDS011;7557;51.698;3.942;2023-03-15T06:00:00;4.40;;;2.33;;
9222;SDS011;7557;51.698;3.942;2023-03-15T06:02:28;7.20;;;2.30;;
9222;SDS011;7557;51.698;3.942;2023-03-15T06:04:56;3.97;;;2.20;;
9222;SDS011;7557;51.698;3.942;2023-03-15T06:07:23;2.27;;;2.07;;
9222;SDS011;7557;51.698;3.942;2023-03-15T06:09:50;2.83;;;1.37;;
9222;SDS011;7557;51.698;3.942;2023-03-15T06:12:18;1.00;;;0.93;;
9222;SDS011;7557;51.698;3.942;2023-03-15T06:14:45;2.27;;;1.17;;
9222;SDS011;7557;51.698;3.942;2023-03-15T06:17:12;1.80;;;1.20;;
9222;SDS011;7557;51.698;3.942;2023-03-15T06:19:39;1.87;;;1.47;;
9222;SDS011;7557;51.698;3.942;2023-03-15T06:22:06;1.57;;;1.43;;
9222;SDS011;7557;51.698;3.942;2023-03-15T06:24:34;2.47;;;1.20;;
9222;SDS011;7557;51.698;3.942;2023-03-15T06:27:01;2.47;;;1.47;;
9222;SDS011;7557;51.698;3.942;2023-03-15T06:29:29;2.57;;;1.43;;
9222;SDS011;7557;51.698;3.942;2023-03-15T06:31:57;1.33;;;1.23;;
9222;SDS011;7557;51.698;3.942;2023-03-15T06:34:24;2.30;;;1.50;;
9222;SDS011;7557;51.698;3.942;2023-03-15T06:36:51;4.07;;;1.47;;
9222;SDS011;7557;51.698;3.942;2023-03-15T06:39:18;1.97;;;1.27;;
9222;SDS011;7557;51.698;3.942;2023-03-15T06:41:45;1.97;;;1.33;;
9222;SDS011;7557;51.698;3.942;2023-03-15T06:44:12;1.03;;;1.03;;
9222;SDS011;7557;51.698;3.942;2023-03-15T06:46:40;4.10;;;1.33;;
9222;SDS011;7557;51.698;3.942;2023-03-15T06:49:07;1.40;;;1.30;;
9222;SDS011;7557;51.698;3.942;2023-03-15T06:51:34;1.47;;;1.33;;
9222;SDS011;7557;51.698;3.942;2023-03-15T06:54:02;2.60;;;1.30;;
9222;SDS011;7557;51.698;3.942;2023-03-15T06:56:29;2.63;;;1.50;;
9222;SDS011;7557;51.698;3.942;2023-03-15T06:59:01;4.47;;;2.00;;
9222;SDS011;7557;51.698;3.942;2023-03-15T07:01:28;3.07;;;1.60;;
9222;SDS011;7557;51.698;3.942;2023-03-15T07:03:57;4.03;;;1.87;;
9222;SDS011;7557;51.698;3.942;2023-03-15T07:06:24;3.47;;;1.40;;
9222;SDS011;7557;51.698;3.942;2023-03-15T07:08:52;2.60;;;1.60;;
9222;SDS011;7557;51.698;3.942;2023-03-15T07:11:19;2.10;;;1.10;;
9222;SDS011;7557;51.698;3.942;2023-03-15T07:13:46;2.10;;;1.17;;
9222;SDS011;7557;51.698;3.942;2023-03-15T07:16:13;2.63;;;1.47;;
9222;SDS011;7557;51.698;3.942;2023-03-15T07:18:40;4.37;;;1.60;;
9222;SDS011;7557;51.698;3.942;2023-03-15T07:21:09;3.83;;;1.57;;
9222;SDS011;7557;51.698;3.942;2023-03-15T07:23:36;2.30;;;1.60;;
9222;SDS011;7557;51.698;3.942;2023-03-15T07:26:03;1.73;;;1.50;;
9222;SDS011;7557;51.698;3.942;2023-03-15T07:28:30;3.73;;;1.70;;
9222;SDS011;7557;51.698;3.942;2023-03-15T07:30:58;1.90;;;1.80;;
9222;SDS011;7557;51.698;3.942;2023-03-15T07:33:26;6.47;;;1.73;;
9222;SDS011;7557;51.698;3.942;2023-03-15T07:35:55;3.00;;;1.80;;
9222;SDS011;7557;51.698;3.942;2023-03-15T07:38:24;2.00;;;1.70;;
9222;SDS011;7557;51.698;3.942;2023-03-15T07:40:53;4.53;;;1.60;;
9222;SDS011;7557;51.698;3.942;2023-03-15T07:43:20;1.50;;;1.50;;
9222;SDS011;7557;51.698;3.942;2023-03-15T07:45:48;1.50;;;1.40;;
9222;SDS011;7557;51.698;3.942;2023-03-15T07:48:15;1.60;;;1.40;;
9222;SDS011;7557;51.698;3.942;2023-03-15T07:50:42;3.53;;;1.40;;
9222;SDS011;7557;51.698;3.942;2023-03-15T07:53:11;2.33;;;2.13;;
9222;SDS011;7557;51.698;3.942;2023-03-15T07:55:41;3.27;;;1.73;;
9222;SDS011;7557;51.698;3.942;2023-03-15T07:58:09;4.50;;;1.97;;
9222;SDS011;7557;51.698;3.942;2023-03-15T08:00:36;3.83;;;1.60;;
9222;SDS011;7557;51.698;3.942;2023-03-15T08:03:03;2.20;;;2.10;;
9222;SDS011;7557;51.698;3.942;2023-03-15T08:05:31;5.50;;;2.07;;
9222;SDS011;7557;51.698;3.942;2023-03-15T08:07:58;1.93;;;1.80;;
9222;SDS011;7557;51.698;3.942;2023-03-15T08:10:26;4.43;;;1.57;;
9222;SDS011;7557;51.698;3.942;2023-03-15T08:12:54;3.63;;;1.50;;
9222;SDS011;7557;51.698;3.942;2023-03-15T08:15:21;2.07;;;1.30;;
9222;SDS011;7557;51.698;3.942;2023-03-15T08:17:48;3.83;;;1.77;;
9222;SDS011;7557;51.698;3.942;2023-03-15T08:20:16;1.30;;;1.10;;
9222;SDS011;7557;51.698;3.942;2023-03-15T08:22:43;2.13;;;1.37;;
9222;SDS011;7557;51.698;3.942;2023-03-15T08:25:12;1.90;;;1.80;;
9222;SDS011;7557;51.698;3.942;2023-03-15T08:27:41;4.50;;;2.50;;
9222;SDS011;7557;51.698;3.942;2023-03-15T08:30:10;3.30;;;1.73;;
9222;SDS011;7557;51.698;3.942;2023-03-15T08:32:39;2.00;;;1.57;;
9222;SDS011;7557;51.698;3.942;2023-03-15T08:35:07;3.10;;;1.17;;
9222;SDS011;7557;51.698;3.942;2023-03-15T08:37:34;4.93;;;1.90;;
9222;SDS011;7557;51.698;3.942;2023-03-15T08:40:02;3.53;;;1.33;;
9222;SDS011;7557;51.698;3.942;2023-03-15T08:42:33;3.97;;;1.20;;
9222;SDS011;7557;51.698;3.942;2023-03-15T08:45:01;1.23;;;1.23;;
9222;SDS011;7557;51.698;3.942;2023-03-15T08:47:29;2.57;;;1.27;;
9222;SDS011;7557;51.698;3.942;2023-03-15T08:49:59;1.13;;;1.10;;
9222;SDS011;7557;51.698;3.942;2023-03-15T08:52:28;2.23;;;1.50;;
9222;SDS011;7557;51.698;3.942;2023-03-15T08:54:55;1.90;;;1.27;;
9222;SDS011;7557;51.698;3.942;2023-03-15T08:57:22;1.70;;;1.23;;
9222;SDS011;7557;51.698;3.942;2023-03-15T08:59:50;2.73;;;1.17;;
9222;SDS011;7557;51.698;3.942;2023-03-15T09:02:18;2.00;;;1.33;;
9222;SDS011;7557;51.698;3.942;2023-03-15T09:04:48;2.20;;;1.67;;
9222;SDS011;7557;51.698;3.942;2023-03-15T09:07:15;1.27;;;1.13;;
9222;SDS011;7557;51.698;3.942;2023-03-15T09:09:42;3.37;;;1.20;;
9222;SDS011;7557;51.698;3.942;2023-03-15T09:12:12;2.55;;;1.55;;
9222;SDS011;7557;51.698;3.942;2023-03-15T09:14:40;2.85;;;1.35;;
9222;SDS011;7557;51.698;3.942;2023-03-15T09:17:07;2.40;;;1.10;;
9222;SDS011;7557;51.698;3.942;2023-03-15T09:19:35;3.65;;;1.40;;
9222;SDS011;7557;51.698;3.942;2023-03-15T09:22:04;4.10;;;1.47;;
9222;SDS011;7557;51.698;3.942;2023-03-15T09:24:31;1.52;;;1.00;;
9222;SDS011;7557;51.698;3.942;2023-03-15T09:26:59;2.80;;;0.95;;
9222;SDS011;7557;51.698;3.942;2023-03-15T09:29:26;1.77;;;1.00;;
9222;SDS011;7557;51.698;3.942;2023-03-15T09:31:53;4.45;;;1.20;;
9222;SDS011;7557;51.698;3.942;2023-03-15T09:34:21;5.35;;;1.00;;
9222;SDS011;7557;51.698;3.942;2023-03-15T09:36:48;1.23;;;0.90;;
9222;SDS011;7557;51.698;3.942;2023-03-15T09:39:19;3.13;;;1.10;;
9222;SDS011;7557;51.698;3.942;2023-03-15T09:41:48;1.38;;;0.95;;
9222;SDS011;7557;51.698;3.942;2023-03-15T09:44:22;1.38;;;0.93;;
9222;SDS011;7557;51.698;3.942;2023-03-15T09:47:07;2.95;;;0.88;;
9222;SDS011;7557;51.698;3.942;2023-03-15T09:49:46;1.35;;;0.70;;
9222;SDS011;7557;51.698;3.942;2023-03-15T09:52:23;2.40;;;1.50;;
9222;SDS011;7557;51.698;3.942;2023-03-15T09:54:58;5.78;;;1.38;;
9222;SDS011;7557;51.698;3.942;2023-03-15T09:57:31;2.75;;;1.23;;
9222;SDS011;7557;51.698;3.942;2023-03-15T10:00:05;3.75;;;0.73;;
9222;SDS011;7557;51.698;3.942;2023-03-15T10:02:38;1.55;;;0.90;;
9222;SDS011;7557;51.698;3.942;2023-03-15T10:05:12;1.63;;;1.10;;
9222;SDS011;7557;51.698;3.942;2023-03-15T10:07:44;1.60;;;1.35;;
9222;SDS011;7557;51.698;3.942;2023-03-15T10:10:15;5.13;;;1.10;;
9222;SDS011;7557;51.698;3.942;2023-03-15T10:12:45;2.65;;;1.00;;
9222;SDS011;7557;51.698;3.942;2023-03-15T10:15:19;3.38;;;1.10;;
9222;SDS011;7557;51.698;3.942;2023-03-15T10:18:00;2.42;;;0.90;;
9222;SDS011;7557;51.698;3.942;2023-03-15T10:20:48;1.05;;;1.05;;
9222;SDS011;7557;51.698;3.942;2023-03-15T10:23:25;1.35;;;0.98;;
9222;SDS011;7557;51.698;3.942;2023-03-15T10:26:03;3.67;;;1.20;;
9222;SDS011;7557;51.698;3.942;2023-03-15T10:28:33;1.25;;;1.20;;
9222;SDS011;7557;51.698;3.942;2023-03-15T10:31:07;1.17;;;0.82;;
9222;SDS011;7557;51.698;3.942;2023-03-15T10:33:38;1.70;;;1.00;;
9222;SDS011;7557;51.698;3.942;2023-03-15T10:36:10;1.77;;;1.20;;
9222;SDS011;7557;51.698;3.942;2023-03-15T10:38:41;1.10;;;1.00;;
9222;SDS011;7557;51.698;3.942;2023-03-15T10:41:12;2.28;;;1.23;;
9222;SDS011;7557;51.698;3.942;2023-03-15T10:43:40;3.60;;;1.08;;
9222;SDS011;7557;51.698;3.942;2023-03-15T10:46:21;0.93;;;0.77;;
9222;SDS011;7557;51.698;3.942;2023-03-15T10:48:52;2.10;;;0.95;;
9222;SDS011;7557;51.698;3.942;2023-03-15T10:51:23;2.13;;;1.30;;
9222;SDS011;7557;51.698;3.942;2023-03-15T10:53:52;1.48;;;0.85;;
9222;SDS011;7557;51.698;3.942;2023-03-15T10:56:24;1.20;;;1.10;;
9222;SDS011;7557;51.698;3.942;2023-03-15T10:58:54;1.02;;;0.68;;
9222;SDS011;7557;51.698;3.942;2023-03-15T11:01:23;1.42;;;0.90;;
9222;SDS011;7557;51.698;3.942;2023-03-15T11:04:03;1.70;;;1.08;;
9222;SDS011;7557;51.698;3.942;2023-03-15T11:06:39;1.40;;;1.00;;
9222;SDS011;7557;51.698;3.942;2023-03-15T11:09:09;2.67;;;1.15;;
9222;SDS011;7557;51.698;3.942;2023-03-15T11:11:51;1.65;;;0.75;;
9222;SDS011;7557;51.698;3.942;2023-03-15T11:14:20;3.15;;;1.20;;
9222;SDS011;7557;51.698;3.942;2023-03-15T11:16:48;1.88;;;0.80;;
9222;SDS011;7557;51.698;3.942;2023-03-15T11:19:17;0.85;;;0.70;;
9222;SDS011;7557;51.698;3.942;2023-03-15T11:21:47;3.00;;;1.00;;
9222;SDS011;7557;51.698;3.942;2023-03-15T11:24:24;3.45;;;1.00;;
9222;SDS011;7557;51.698;3.942;2023-03-15T11:26:54;0.73;;;0.73;;
9222;SDS011;7557;51.698;3.942;2023-03-15T11:29:26;1.10;;;0.80;;
9222;SDS011;7557;51.698;3.942;2023-03-15T11:31:55;0.73;;;0.50;;
9222;SDS011;7557;51.698;3.942;2023-03-15T11:34:34;1.67;;;0.98;;
9222;SDS011;7557;51.698;3.942;2023-03-15T11:37:09;0.77;;;0.77;;
9222;SDS011;7557;51.698;3.942;2023-03-15T11:39:40;0.73;;;0.57;;
9222;SDS011;7557;51.698;3.942;2023-03-15T11:42:18;1.90;;;0.77;;
9222;SDS011;7557;51.698;3.942;2023-03-15T11:44:50;1.73;;;0.63;;
9222;SDS011;7557;51.698;3.942;2023-03-15T11:47:23;1.48;;;0.90;;
9222;SDS011;7557;51.698;3.942;2023-03-15T11:49:58;1.60;;;0.80;;
9222;SDS011;7557;51.698;3.942;2023-03-15T11:52:25;0.75;;;0.75;;
9222;SDS011;7557;51.698;3.942;2023-03-15T11:54:55;2.20;;;0.93;;
9222;SDS011;7557;51.698;3.942;2023-03-15T11:57:39;1.33;;;1.30;;
9222;SDS011;7557;51.698;3.942;2023-03-15T12:09:01;2.60;;;1.33;;
9222;SDS011;7557;51.698;3.942;2023-03-15T12:11:56;1.35;;;1.35;;
9222;SDS011;7557;51.698;3.942;2023-03-15T12:14:27;1.58;;;1.45;;
9222;SDS011;7557;51.698;3.942;2023-03-15T12:20:04;2.38;;;1.30;;
9222;SDS011;7557;51.698;3.942;2023-03-15T12:22:34;2.35;;;1.50;;
9222;SDS011;7557;51.698;3.942;2023-03-15T12:25:04;1.77;;;1.50;;
9222;SDS011;7557;51.698;3.942;2023-03-15T12:27:38;1.63;;;1.20;;
9222;SDS011;7557;51.698;3.942;2023-03-15T12:30:15;1.60;;;1.50;;
9222;SDS011;7557;51.698;3.942;2023-03-15T12:32:48;1.25;;;1.25;;
9222;SDS011;7557;51.698;3.942;2023-03-15T12:35:18;1.23;;;1.23;;
9222;SDS011;7557;51.698;3.942;2023-03-15T12:37:48;2.00;;;1.60;;
9222;SDS011;7557;51.698;3.942;2023-03-15T12:40:36;2.75;;;1.77;;
9222;SDS011;7557;51.698;3.942;2023-03-15T12:43:12;5.40;;;1.90;;
9222;SDS011;7557;51.698;3.942;2023-03-15T12:45:42;1.58;;;1.48;;
9222;SDS011;7557;51.698;3.942;2023-03-15T12:48:23;2.30;;;1.73;;
9222;SDS011;7557;51.698;3.942;2023-03-15T12:50:53;2.20;;;2.00;;
9222;SDS011;7557;51.698;3.942;2023-03-15T12:56:26;1.92;;;1.83;;
9222;SDS011;7557;51.698;3.942;2023-03-15T12:59:02;1.50;;;1.40;;
9222;SDS011;7557;51.698;3.942;2023-03-15T13:01:36;1.73;;;1.63;;
9222;SDS011;7557;51.698;3.942;2023-03-15T13:04:07;1.75;;;1.65;;
9222;SDS011;7557;51.698;3.942;2023-03-15T13:09:36;1.65;;;1.50;;
9222;SDS011;7557;51.698;3.942;2023-03-15T13:12:25;3.75;;;1.90;;
9222;SDS011;7557;51.698;3.942;2023-03-15T13:14:56;2.20;;;1.50;;
9222;SDS011;7557;51.698;3.942;2023-03-15T13:17:33;2.13;;;1.90;;
9222;SDS011;7557;51.698;3.942;2023-03-15T13:20:10;1.90;;;1.80;;
9222;SDS011;7557;51.698;3.942;2023-03-15T13:22:46;1.83;;;1.70;;
9222;SDS011;7557;51.698;3.942;2023-03-15T13:25:18;1.90;;;1.42;;
9222;SDS011;7557;51.698;3.942;2023-03-15T13:27:53;2.78;;;1.75;;
9222;SDS011;7557;51.698;3.942;2023-03-15T13:30:31;1.95;;;1.63;;
9222;SDS011;7557;51.698;3.942;2023-03-15T13:33:02;2.22;;;2.05;;
9222;SDS011;7557;51.698;3.942;2023-03-15T13:35:31;1.80;;;1.70;;
9222;SDS011;7557;51.698;3.942;2023-03-15T13:37:59;3.03;;;1.90;;
9222;SDS011;7557;51.698;3.942;2023-03-15T13:40:32;1.80;;;1.70;;
9222;SDS011;7557;51.698;3.942;2023-03-15T13:42:59;3.80;;;2.00;;
9222;SDS011;7557;51.698;3.942;2023-03-15T13:45:27;2.15;;;1.90;;
9222;SDS011;7557;51.698;3.942;2023-03-15T13:47:54;2.53;;;2.33;;
9222;SDS011;7557;51.698;3.942;2023-03-15T13:50:22;2.15;;;2.05;;
9222;SDS011;7557;51.698;3.942;2023-03-15T13:52:49;3.33;;;2.20;;
9222;SDS011;7557;51.698;3.942;2023-03-15T13:55:19;1.70;;;1.70;;
9222;SDS011;7557;51.698;3.942;2023-03-15T13:57:50;2.15;;;2.05;;
9222;SDS011;7557;51.698;3.942;2023-03-15T14:00:24;1.90;;;1.80;;
9222;SDS011;7557;51.698;3.942;2023-03-15T14:02:52;2.38;;;2.28;;
9222;SDS011;7557;51.698;3.942;2023-03-15T14:05:25;2.47;;;2.25;;
9222;SDS011;7557;51.698;3.942;2023-03-15T14:07:55;2.43;;;2.23;;
9222;SDS011;7557;51.698;3.942;2023-03-15T14:10:27;2.53;;;2.33;;
9222;SDS011;7557;51.698;3.942;2023-03-15T14:12:57;2.65;;;2.13;;
9222;SDS011;7557;51.698;3.942;2023-03-15T14:15:41;2.33;;;2.20;;
9222;SDS011;7557;51.698;3.942;2023-03-15T14:18:14;2.03;;;1.90;;
9222;SDS011;7557;51.698;3.942;2023-03-15T14:20:50;2.03;;;1.93;;
9222;SDS011;7557;51.698;3.942;2023-03-15T14:23:21;2.50;;;2.30;;
9222;SDS011;7557;51.698;3.942;2023-03-15T14:25:50;2.47;;;2.28;;
9222;SDS011;7557;51.698;3.942;2023-03-15T14:28:18;2.25;;;2.15;;
9222;SDS011;7557;51.698;3.942;2023-03-15T14:30:51;3.25;;;2.30;;
9222;SDS011;7557;51.698;3.942;2023-03-15T14:33:27;2.63;;;1.83;;
9222;SDS011;7557;51.698;3.942;2023-03-15T14:35:59;2.10;;;2.00;;
9222;SDS011;7557;51.698;3.942;2023-03-15T14:38:33;1.97;;;1.87;;
9222;SDS011;7557;51.698;3.942;2023-03-15T14:41:16;2.00;;;1.90;;
9222;SDS011;7557;51.698;3.942;2023-03-15T14:43:48;2.83;;;2.63;;
9222;SDS011;7557;51.698;3.942;2023-03-15T14:46:15;2.85;;;2.70;;
9222;SDS011;7557;51.698;3.942;2023-03-15T14:48:42;2.80;;;2.60;;
9222;SDS011;7557;51.698;3.942;2023-03-15T14:51:12;2.83;;;2.73;;
9222;SDS011;7557;51.698;3.942;2023-03-15T14:53:41;3.47;;;2.90;;
9222;SDS011;7557;51.698;3.942;2023-03-15T14:56:10;2.72;;;2.63;;
9222;SDS011;7557;51.698;3.942;2023-03-15T14:58:37;3.67;;;3.22;;
9222;SDS011;7557;51.698;3.942;2023-03-15T15:01:05;3.47;;;3.27;;
9222;SDS011;7557;51.698;3.942;2023-03-15T15:03:34;3.90;;;3.50;;
9222;SDS011;7557;51.698;3.942;2023-03-15T15:06:03;5.47;;;2.87;;
9222;SDS011;7557;51.698;3.942;2023-03-15T15:08:34;3.33;;;3.13;;
9222;SDS011;7557;51.698;3.942;2023-03-15T15:11:04;3.00;;;2.80;;
9222;SDS011;7557;51.698;3.942;2023-03-15T15:13:33;2.90;;;2.80;;
9222;SDS011;7557;51.698;3.942;2023-03-15T15:16:01;3.67;;;3.37;;
9222;SDS011;7557;51.698;3.942;2023-03-15T15:18:29;3.23;;;3.00;;
9222;SDS011;7557;51.698;3.942;2023-03-15T15:20:57;2.93;;;2.73;;
9222;SDS011;7557;51.698;3.942;2023-03-15T15:23:27;3.07;;;2.80;;
9222;SDS011;7557;51.698;3.942;2023-03-15T15:25:58;2.87;;;2.67;;
9222;SDS011;7557;51.698;3.942;2023-03-15T15:28:26;2.73;;;2.50;;
9222;SDS011;7557;51.698;3.942;2023-03-15T15:30:55;2.90;;;2.67;;
9222;SDS011;7557;51.698;3.942;2023-03-15T15:33:22;3.10;;;2.80;;
9222;SDS011;7557;51.698;3.942;2023-03-15T15:35:49;2.70;;;2.50;;
9222;SDS011;7557;51.698;3.942;2023-03-15T15:38:18;2.57;;;2.37;;
9222;SDS011;7557;51.698;3.942;2023-03-15T15:40:47;2.43;;;2.33;;
9222;SDS011;7557;51.698;3.942;2023-03-15T15:43:15;2.60;;;2.50;;
9222;SDS011;7557;51.698;3.942;2023-03-15T15:45:43;2.50;;;2.30;;
9222;SDS011;7557;51.698;3.942;2023-03-15T15:48:10;2.27;;;2.17;;
9222;SDS011;7557;51.698;3.942;2023-03-15T15:50:37;1.70;;;1.70;;